Time;durP1;ratioP1;P1;durP2;ratioP2;P2;SDS_P1;SDS_P2;PMS_P1;PMS_P2;Temp;Humidity;BMP_temperature;BMP_pressure;BME280_temperature;BME280_humidity;BME280_pressure;Samples;Min_cycle;Max_cycle;Signal;HPM_P1;HPM_P2
2021/04/17 00:00:24;;;;;;;0.73;0.50;;;8.50;44.00;;;;;;4969778;28;20274;-72
2021/04/17 00:02:50;;;;;;;0.60;0.32;;;8.50;44.20;;;;;;5001325;28;20022;-72
2021/04/17 00:05:16;;;;;;;2.63;0.70;;;8.50;44.20;;;;;;5001823;28;20011;-72
2021/04/17 00:07:41;;;;;;;0.93;0.40;;;8.50;44.30;;;;;;4969845;28;20197;-72
2021/04/17 00:10:07;;;;;;;1.25;0.55;;;8.50;44.40;;;;;;4985604;28;20014;-72
2021/04/17 00:12:33;;;;;;;0.85;0.52;;;8.50;44.40;;;;;;4985809;28;20026;-72
2021/04/17 00:14:59;;;;;;;1.70;0.57;;;8.50;44.60;;;;;;4980369;28;20018;-72
2021/04/17 00:17:24;;;;;;;0.60;0.40;;;8.50;44.70;;;;;;4982573;28;20018;-72
2021/04/17 00:19:51;;;;;;;0.45;0.40;;;8.50;44.80;;;;;;5002303;28;20022;-72
2021/04/17 00:22:17;;;;;;;0.30;0.30;;;8.50;45.00;;;;;;5003257;28;20026;-72
2021/04/17 00:24:43;;;;;;;1.27;0.40;;;8.50;45.10;;;;;;4985803;28;20014;-72
2021/04/17 00:27:08;;;;;;;1.40;0.40;;;8.50;45.20;;;;;;4986477;28;20081;-72
2021/04/17 00:29:34;;;;;;;0.60;0.30;;;8.50;45.30;;;;;;4985548;28;20020;-72
2021/04/17 00:32:00;;;;;;;0.80;0.30;;;8.50;45.50;;;;;;5001723;28;20324;-72
2021/04/17 00:34:26;;;;;;;0.45;0.40;;;8.50;45.60;;;;;;5018374;28;20022;-72
2021/04/17 00:36:52;;;;;;;1.67;0.57;;;8.50;45.60;;;;;;4985728;28;20081;-72
2021/04/17 00:39:17;;;;;;;1.27;0.50;;;8.40;45.60;;;;;;5001872;28;20033;-72
2021/04/17 00:41:43;;;;;;;1.20;0.50;;;8.40;45.70;;;;;;4985771;28;20358;-72
2021/04/17 00:44:09;;;;;;;1.20;0.40;;;8.50;45.80;;;;;;4985572;28;20050;-72
2021/04/17 00:46:34;;;;;;;0.75;0.40;;;8.50;45.60;;;;;;4969754;28;20010;-72
2021/04/17 00:49:04;;;;;;;0.70;0.40;;;8.40;45.50;;;;;;5001899;28;20083;-72
2021/04/17 00:51:29;;;;;;;2.45;0.40;;;8.40;45.50;;;;;;4969839;28;20078;-72
2021/04/17 00:53:55;;;;;;;1.42;0.50;;;8.40;45.60;;;;;;5001605;28;20011;-72
2021/04/17 00:56:21;;;;;;;2.40;0.43;;;8.40;45.70;;;;;;4988428;28;20373;-72
2021/04/17 00:58:46;;;;;;;1.00;0.45;;;8.40;45.90;;;;;;5004840;28;20014;-72
2021/04/17 01:01:12;;;;;;;0.32;0.30;;;8.40;46.00;;;;;;5022525;28;20021;-72
2021/04/17 01:03:53;;;;;;;2.47;0.60;;;8.40;46.10;;;;;;5005268;28;20017;-72
2021/04/17 01:06:34;;;;;;;1.83;0.75;;;8.40;46.10;;;;;;5004976;28;20026;-72
2021/04/17 01:09:04;;;;;;;0.93;0.50;;;8.40;46.20;;;;;;5021583;28;20009;-72
2021/04/17 01:12:15;;;;;;;3.00;0.47;;;8.40;46.40;;;;;;5003788;28;20097;-72
2021/04/17 01:14:42;;;;;;;0.82;0.57;;;8.30;46.40;;;;;;5022514;28;20053;-72
2021/04/17 01:17:10;;;;;;;1.77;0.55;;;8.30;46.50;;;;;;5025351;28;20021;-72
2021/04/17 01:19:39;;;;;;;1.02;0.57;;;8.30;46.60;;;;;;5008874;28;20017;-72
2021/04/17 01:22:09;;;;;;;0.93;0.50;;;8.30;46.80;;;;;;5008767;28;20060;-72
2021/04/17 01:24:37;;;;;;;1.02;0.40;;;8.30;46.70;;;;;;5004745;28;20255;-72
2021/04/17 01:27:04;;;;;;;0.73;0.30;;;8.30;46.90;;;;;;5004780;28;20010;-72
2021/04/17 01:29:29;;;;;;;2.15;0.43;;;8.30;47.00;;;;;;5006825;28;20018;-72
2021/04/17 01:31:57;;;;;;;1.00;0.50;;;8.30;47.00;;;;;;5024418;28;20373;-72
2021/04/17 01:34:22;;;;;;;2.28;0.50;;;8.20;47.10;;;;;;5008145;28;20006;-72
2021/04/17 01:36:48;;;;;;;1.80;0.73;;;8.30;47.30;;;;;;5007949;28;20065;-72
2021/04/17 01:39:14;;;;;;;0.73;0.47;;;8.20;47.40;;;;;;5007626;28;20246;-72
2021/04/17 01:41:44;;;;;;;1.02;0.50;;;8.20;47.60;;;;;;5004267;28;20022;-72
2021/04/17 01:44:14;;;;;;;0.50;0.30;;;8.20;47.70;;;;;;5006657;28;20141;-72
2021/04/17 01:47:03;;;;;;;1.17;0.60;;;8.20;47.60;;;;;;5007559;28;20086;-71
2021/04/17 01:49:30;;;;;;;1.20;0.60;;;8.20;47.90;;;;;;5002555;28;20027;-72
2021/04/17 01:51:56;;;;;;;1.67;0.60;;;8.20;48.00;;;;;;5007865;28;20025;-72
2021/04/17 01:54:24;;;;;;;1.20;0.60;;;8.20;48.10;;;;;;5008149;28;20033;-72
2021/04/17 01:56:50;;;;;;;2.45;0.60;;;8.10;48.30;;;;;;5004278;28;20058;-72
2021/04/17 01:59:17;;;;;;;1.48;0.50;;;8.10;48.50;;;;;;5020806;28;20038;-72
2021/04/17 02:01:43;;;;;;;0.40;0.30;;;8.10;48.60;;;;;;5007017;28;20021;-72
2021/04/17 02:04:09;;;;;;;2.22;0.60;;;8.10;48.40;;;;;;5007477;28;20014;-72
2021/04/17 02:06:34;;;;;;;0.98;0.40;;;8.10;48.40;;;;;;5008049;28;20200;-72
2021/04/17 02:09:00;;;;;;;1.17;0.40;;;8.10;48.30;;;;;;5024109;28;20013;-72
2021/04/17 02:11:26;;;;;;;1.48;0.65;;;8.20;48.00;;;;;;5040645;28;20025;-72
2021/04/17 02:13:51;;;;;;;1.42;0.50;;;8.20;48.40;;;;;;5014898;28;20018;-72
2021/04/17 02:16:18;;;;;;;1.02;0.40;;;8.20;47.60;;;;;;5004057;28;20032;-72
2021/04/17 02:18:56;;;;;;;1.38;0.52;;;8.20;47.50;;;;;;5003966;28;20010;-72
2021/04/17 02:21:38;;;;;;;0.88;0.50;;;8.20;47.20;;;;;;5007303;28;20029;-72
2021/04/17 02:24:05;;;;;;;1.30;0.52;;;8.20;47.20;;;;;;5007654;28;20112;-72
2021/04/17 02:26:31;;;;;;;1.77;0.50;;;8.20;46.90;;;;;;5022902;28;20327;-71
2021/04/17 02:28:56;;;;;;;0.55;0.50;;;8.20;47.10;;;;;;5020457;28;20038;-71
2021/04/17 02:31:24;;;;;;;1.05;0.50;;;8.20;47.10;;;;;;4990745;28;20028;-73
2021/04/17 02:33:49;;;;;;;0.85;0.50;;;8.20;47.10;;;;;;5006991;28;20018;-74
2021/04/17 02:36:15;;;;;;;1.77;0.55;;;8.20;47.20;;;;;;5023359;28;20029;-71
2021/04/17 02:38:41;;;;;;;0.60;0.40;;;8.20;47.40;;;;;;5019781;28;20014;-72
2021/04/17 02:41:06;;;;;;;1.70;0.70;;;8.20;47.40;;;;;;5023234;28;20021;-72
2021/04/17 02:43:32;;;;;;;1.10;0.40;;;8.20;48.10;;;;;;5023188;28;20076;-72
2021/04/17 02:45:58;;;;;;;2.17;0.60;;;8.10;47.60;;;;;;4977586;28;20022;-72
2021/04/17 02:48:23;;;;;;;1.65;0.60;;;8.10;47.70;;;;;;5019893;28;20010;-72
2021/04/17 02:50:49;;;;;;;1.98;0.80;;;8.10;47.70;;;;;;5022761;28;20034;-72
2021/04/17 02:53:15;;;;;;;1.30;0.45;;;8.10;47.90;;;;;;5019836;28;20346;-72
2021/04/17 02:55:40;;;;;;;1.25;0.50;;;8.00;48.00;;;;;;5004354;28;20395;-72
2021/04/17 02:58:06;;;;;;;1.25;0.60;;;8.00;48.00;;;;;;5003593;28;20054;-72
2021/04/17 03:00:31;;;;;;;1.83;0.70;;;8.00;48.20;;;;;;5005143;28;20018;-72
2021/04/17 03:02:57;;;;;;;2.20;0.60;;;8.00;48.20;;;;;;4991797;28;20029;-72
2021/04/17 03:05:23;;;;;;;1.92;0.80;;;8.00;48.30;;;;;;5005786;28;20033;-72
2021/04/17 03:07:48;;;;;;;2.65;0.65;;;8.00;48.50;;;;;;4987612;28;20307;-72
2021/04/17 03:10:14;;;;;;;1.38;0.57;;;8.00;48.60;;;;;;4987509;28;20022;-72
2021/04/17 03:12:40;;;;;;;1.20;0.60;;;8.00;48.70;;;;;;4988359;28;20014;-72
2021/04/17 03:15:06;;;;;;;1.25;0.60;;;7.90;48.80;;;;;;4987317;28;20061;-72
2021/04/17 03:17:32;;;;;;;1.35;0.60;;;7.90;48.90;;;;;;5004199;28;20234;-72
2021/04/17 03:19:57;;;;;;;1.63;0.60;;;7.90;49.00;;;;;;4986838;28;20010;-72
2021/04/17 03:22:23;;;;;;;1.80;0.82;;;7.90;49.10;;;;;;4986739;28;20090;-72
2021/04/17 03:24:49;;;;;;;1.25;0.68;;;7.90;49.20;;;;;;5002784;28;20010;-72
2021/04/17 03:27:14;;;;;;;1.27;0.60;;;7.90;49.40;;;;;;4986616;28;20152;-72
2021/04/17 03:29:40;;;;;;;1.20;0.70;;;7.90;49.60;;;;;;5002729;28;20014;-72
2021/04/17 03:32:06;;;;;;;1.23;0.55;;;7.90;49.80;;;;;;5002904;28;20022;-72
2021/04/17 03:34:31;;;;;;;2.25;0.82;;;7.90;49.80;;;;;;4986425;28;20197;-72
2021/04/17 03:36:57;;;;;;;1.67;0.70;;;7.90;49.70;;;;;;4985731;28;20041;-72
2021/04/17 03:39:23;;;;;;;2.63;0.60;;;7.90;49.70;;;;;;4986304;28;20011;-72
2021/04/17 03:41:49;;;;;;;1.27;0.55;;;7.90;49.60;;;;;;5002585;28;20089;-72
2021/04/17 03:44:15;;;;;;;1.50;0.50;;;7.90;49.70;;;;;;5002733;28;20220;-72
2021/04/17 03:46:40;;;;;;;2.42;0.70;;;7.90;49.80;;;;;;4986507;28;20022;-72
2021/04/17 03:49:06;;;;;;;2.28;0.80;;;7.90;49.80;;;;;;5004030;28;20026;-72
2021/04/17 03:51:31;;;;;;;1.40;0.50;;;7.90;49.90;;;;;;5004948;28;20351;-72
2021/04/17 03:53:57;;;;;;;1.10;0.60;;;7.90;49.90;;;;;;5005220;28;20319;-72
2021/04/17 03:56:23;;;;;;;2.15;0.70;;;7.90;50.00;;;;;;4990670;28;20050;-72
2021/04/17 03:58:48;;;;;;;2.05;0.80;;;7.90;50.10;;;;;;5006553;28;20048;-72
2021/04/17 04:01:14;;;;;;;3.55;0.73;;;7.90;50.20;;;;;;5018552;28;20021;-72
2021/04/17 04:03:39;;;;;;;2.00;0.80;;;7.90;50.20;;;;;;5002480;28;20041;-73
2021/04/17 04:06:05;;;;;;;2.65;0.80;;;7.90;50.10;;;;;;5002916;28;20014;-74
2021/04/17 04:08:31;;;;;;;1.80;0.90;;;7.80;50.20;;;;;;4988562;28;20026;-71
2021/04/17 04:10:57;;;;;;;6.25;0.98;;;7.90;50.40;;;;;;5023825;28;20042;-72
2021/04/17 04:13:23;;;;;;;2.30;0.60;;;7.90;50.50;;;;;;5005301;28;20398;-72
2021/04/17 04:15:49;;;;;;;2.28;0.90;;;7.80;50.60;;;;;;5005886;28;20010;-72
2021/04/17 04:18:14;;;;;;;2.05;0.85;;;7.80;50.70;;;;;;5005627;28;20088;-72
2021/04/17 04:20:40;;;;;;;2.55;0.70;;;7.80;50.90;;;;;;5018456;28;20342;-72
2021/04/17 04:23:05;;;;;;;2.10;0.93;;;7.80;51.00;;;;;;5002210;28;20331;-72
2021/04/17 04:25:31;;;;;;;1.13;0.70;;;7.80;51.10;;;;;;5002326;28;20022;-72
2021/04/17 04:27:57;;;;;;;1.60;0.70;;;7.80;51.10;;;;;;5005368;28;20069;-72
2021/04/17 04:30:23;;;;;;;3.78;0.80;;;7.80;51.20;;;;;;5005367;28;20040;-72
2021/04/17 04:32:48;;;;;;;5.88;1.02;;;7.80;51.20;;;;;;5005258;28;20017;-72
2021/04/17 04:35:14;;;;;;;1.70;0.65;;;7.80;51.40;;;;;;5002061;28;20309;-72
2021/04/17 04:37:40;;;;;;;2.25;0.80;;;7.80;51.40;;;;;;5002278;28;20007;-72
2021/04/17 04:40:06;;;;;;;2.55;0.52;;;7.80;51.40;;;;;;5021007;28;20041;-72
2021/04/17 04:42:32;;;;;;;1.38;0.60;;;7.80;51.50;;;;;;5005397;28;20308;-72
2021/04/17 04:44:58;;;;;;;1.13;0.57;;;7.80;51.50;;;;;;5005273;28;20020;-72
2021/04/17 04:47:23;;;;;;;2.47;0.70;;;7.80;51.30;;;;;;5005259;28;20041;-72
2021/04/17 04:49:49;;;;;;;1.42;0.80;;;7.80;51.70;;;;;;5011995;28;20010;-72
2021/04/17 04:52:15;;;;;;;2.03;0.80;;;7.80;51.30;;;;;;5010276;28;20219;-72
2021/04/17 04:54:40;;;;;;;4.43;0.90;;;7.80;51.40;;;;;;5026329;28;20211;-72
2021/04/17 04:57:06;;;;;;;1.90;0.82;;;7.80;51.60;;;;;;5009009;28;20045;-72
2021/04/17 04:59:32;;;;;;;3.17;0.75;;;7.80;51.70;;;;;;5009909;28;20033;-72
2021/04/17 05:01:58;;;;;;;2.22;0.63;;;7.80;51.80;;;;;;5009615;28;20042;-72
2021/04/17 05:04:23;;;;;;;4.15;1.05;;;7.80;51.70;;;;;;5009633;28;20022;-72
2021/04/17 05:06:49;;;;;;;1.85;0.73;;;7.80;51.80;;;;;;5010216;28;20017;-73
2021/04/17 05:09:15;;;;;;;3.17;0.68;;;7.80;51.90;;;;;;5010233;28;20382;-72
2021/04/17 05:11:41;;;;;;;3.40;0.70;;;7.80;52.00;;;;;;5046257;28;20025;-72
2021/04/17 05:14:06;;;;;;;2.35;0.70;;;7.80;52.10;;;;;;5013581;28;20124;-72
2021/04/17 05:16:32;;;;;;;1.08;0.65;;;7.80;52.10;;;;;;4988782;28;20014;-72
2021/04/17 05:18:57;;;;;;;2.35;0.57;;;7.80;52.10;;;;;;4990196;28;20018;-72
2021/04/17 05:21:23;;;;;;;1.95;0.60;;;7.80;52.30;;;;;;4993528;28;20064;-72
2021/04/17 05:23:49;;;;;;;2.10;0.77;;;7.90;52.40;;;;;;5010402;28;20085;-72
2021/04/17 05:26:14;;;;;;;1.52;0.88;;;7.90;52.40;;;;;;5010845;28;20010;-72
2021/04/17 05:28:40;;;;;;;1.70;0.63;;;7.90;52.50;;;;;;5027264;28;20014;-72
2021/04/17 05:31:06;;;;;;;0.82;0.63;;;7.90;52.40;;;;;;5011172;28;20036;-72
2021/04/17 05:33:31;;;;;;;2.22;0.70;;;7.90;52.40;;;;;;5009947;28;20114;-72
2021/04/17 05:35:57;;;;;;;1.85;0.70;;;7.90;52.30;;;;;;5009119;28;20010;-72
2021/04/17 05:38:23;;;;;;;3.38;0.80;;;8.00;52.30;;;;;;5006629;28;20014;-72
2021/04/17 05:40:48;;;;;;;1.25;0.60;;;8.00;52.10;;;;;;5009623;28;20059;-72
2021/04/17 05:43:14;;;;;;;3.85;0.80;;;8.00;52.10;;;;;;5009016;28;20017;-72
2021/04/17 05:45:39;;;;;;;1.38;0.57;;;8.00;52.10;;;;;;5008227;28;20080;-72
2021/04/17 05:48:06;;;;;;;3.72;0.80;;;8.00;52.10;;;;;;5007961;28;20476;-72
2021/04/17 05:50:31;;;;;;;2.13;0.73;;;8.00;52.00;;;;;;5020676;28;20041;-72
2021/04/17 05:52:57;;;;;;;1.80;0.70;;;8.00;52.20;;;;;;5021378;28;20010;-72
2021/04/17 05:55:22;;;;;;;2.42;0.75;;;8.10;52.30;;;;;;5004706;28;20011;-72
2021/04/17 05:57:48;;;;;;;1.80;0.70;;;8.10;52.30;;;;;;5005128;28;20378;-72
2021/04/17 06:00:14;;;;;;;2.85;0.90;;;8.20;52.10;;;;;;5007222;28;20006;-72
2021/04/17 06:02:40;;;;;;;2.33;0.82;;;8.20;52.00;;;;;;5008120;28;20288;-72
2021/04/17 06:05:06;;;;;;;1.77;0.73;;;8.30;52.00;;;;;;5007932;28;20214;-72
2021/04/17 06:07:31;;;;;;;1.20;0.60;;;8.40;51.90;;;;;;5008486;28;20220;-72
2021/04/17 06:09:57;;;;;;;2.35;0.70;;;8.40;51.70;;;;;;5000774;28;20011;-72
2021/04/17 06:12:23;;;;;;;2.28;0.70;;;8.50;51.80;;;;;;5008286;28;20028;-72
2021/04/17 06:14:48;;;;;;;2.70;0.93;;;8.60;51.50;;;;;;5008655;28;20005;-72
2021/04/17 06:17:14;;;;;;;1.42;0.60;;;8.60;51.40;;;;;;5024032;28;20311;-72
2021/04/17 06:19:39;;;;;;;2.85;0.90;;;8.60;51.40;;;;;;5023796;28;20029;-72
2021/04/17 06:22:05;;;;;;;2.60;0.80;;;8.80;51.30;;;;;;5007837;28;20009;-72
2021/04/17 06:24:31;;;;;;;1.73;0.80;;;8.80;51.00;;;;;;5008336;28;20026;-72
2021/04/17 06:26:56;;;;;;;3.45;0.70;;;8.90;51.00;;;;;;5025236;28;20037;-72
2021/04/17 06:29:22;;;;;;;1.52;0.80;;;8.90;50.80;;;;;;5005109;28;20018;-72
2021/04/17 06:31:48;;;;;;;2.75;1.08;;;8.80;50.90;;;;;;5008138;28;20085;-72
2021/04/17 06:34:13;;;;;;;2.00;0.70;;;8.80;51.00;;;;;;4992192;28;20021;-72
2021/04/17 06:36:39;;;;;;;1.45;0.70;;;8.70;51.10;;;;;;5010707;28;20391;-72
2021/04/17 06:39:08;;;;;;;2.13;0.82;;;8.80;51.20;;;;;;5009020;28;20014;-72
2021/04/17 06:41:34;;;;;;;2.00;0.80;;;8.80;51.20;;;;;;5004743;28;20061;-72
2021/04/17 06:44:05;;;;;;;2.03;0.60;;;8.90;50.90;;;;;;5008649;28;20299;-72
2021/04/17 06:46:31;;;;;;;3.08;0.82;;;9.30;50.20;;;;;;5008536;28;20010;-72
2021/04/17 06:48:59;;;;;;;1.35;0.60;;;10.10;49.30;;;;;;5023747;28;20021;-72
2021/04/17 06:51:25;;;;;;;1.25;0.68;;;11.00;47.50;;;;;;4987310;28;20332;-72
2021/04/17 06:53:51;;;;;;;2.00;0.70;;;11.20;46.20;;;;;;5003858;28;20029;-72
2021/04/17 06:56:16;;;;;;;6.20;0.85;;;11.20;46.00;;;;;;5003673;28;20007;-72
2021/04/17 06:58:42;;;;;;;1.80;0.70;;;10.90;46.20;;;;;;4987439;28;20018;-72
2021/04/17 07:01:08;;;;;;;1.98;0.68;;;11.10;46.40;;;;;;5018325;28;20021;-72
2021/04/17 07:03:34;;;;;;;4.60;0.70;;;11.00;46.50;;;;;;5019595;28;20025;-72
2021/04/17 07:05:59;;;;;;;1.80;0.60;;;11.20;46.20;;;;;;5019894;28;20063;-72
2021/04/17 07:08:25;;;;;;;3.15;0.80;;;11.20;46.20;;;;;;5022881;28;20014;-72
2021/04/17 07:10:51;;;;;;;1.58;0.70;;;11.30;45.70;;;;;;5022845;28;20038;-72
2021/04/17 07:13:17;;;;;;;2.60;0.73;;;11.60;45.40;;;;;;5003299;28;20117;-73
2021/04/17 07:15:43;;;;;;;2.53;0.98;;;11.10;46.00;;;;;;5003567;28;20219;-72
2021/04/17 07:18:30;;;;;;;1.38;0.70;;;10.60;46.70;;;;;;4986898;28;20015;-72
2021/04/17 07:20:57;;;;;;;2.15;1.10;;;10.20;47.80;;;;;;5019602;28;20331;-72
2021/04/17 07:23:32;;;;;;;1.73;0.77;;;9.90;48.80;;;;;;4987079;28;20133;-72
2021/04/17 07:26:11;;;;;;;1.05;0.65;;;10.10;49.00;;;;;;5018111;28;20242;-72
2021/04/17 07:28:39;;;;;;;1.83;0.85;;;10.00;49.00;;;;;;5020521;28;20030;-72
2021/04/17 07:31:05;;;;;;;3.28;1.08;;;10.00;49.30;;;;;;5024097;28;20049;-72
2021/04/17 07:33:31;;;;;;;3.13;1.00;;;10.00;49.10;;;;;;5009030;28;20024;-72
2021/04/17 07:35:57;;;;;;;3.00;0.80;;;10.10;49.20;;;;;;5009152;28;20009;-72
2021/04/17 07:38:24;;;;;;;2.10;0.98;;;10.70;48.70;;;;;;5005119;28;20256;-72
2021/04/17 07:41:06;;;;;;;3.60;0.65;;;11.00;47.60;;;;;;5005844;28;20018;-72
2021/04/17 07:43:58;;;;;;;2.28;0.70;;;11.00;47.30;;;;;;5008274;28;20043;-72
2021/04/17 07:46:43;;;;;;;1.73;0.60;;;10.90;47.60;;;;;;5008365;28;20014;-72
2021/04/17 07:49:12;;;;;;;1.75;0.77;;;11.40;47.00;;;;;;5016466;28;20041;-72
2021/04/17 07:51:57;;;;;;;2.45;0.77;;;11.40;47.40;;;;;;5031647;28;20018;-72
2021/04/17 07:54:23;;;;;;;1.02;0.50;;;11.30;47.00;;;;;;5026701;28;20056;-74
2021/04/17 07:56:48;;;;;;;2.42;0.70;;;11.30;46.90;;;;;;4990502;28;20038;-74
2021/04/17 07:59:14;;;;;;;6.47;0.90;;;10.90;47.70;;;;;;5019973;28;20223;-74
2021/04/17 08:01:40;;;;;;;1.73;0.70;;;11.00;47.70;;;;;;4990241;28;20010;-74
2021/04/17 08:04:05;;;;;;;2.22;0.80;;;10.90;47.80;;;;;;5002509;28;20037;-73
2021/04/17 08:06:31;;;;;;;2.75;0.93;;;10.70;48.20;;;;;;4987012;28;20110;-73
2021/04/17 08:08:58;;;;;;;3.20;0.85;;;10.70;48.50;;;;;;5002942;28;20037;-74
2021/04/17 08:11:25;;;;;;;2.40;0.80;;;10.50;48.80;;;;;;5004595;28;20093;-73
2021/04/17 08:13:51;;;;;;;1.95;0.85;;;10.50;49.10;;;;;;5002760;28;20374;-73
2021/04/17 08:16:18;;;;;;;2.08;0.90;;;10.50;49.50;;;;;;4986460;28;20014;-73
2021/04/17 08:18:44;;;;;;;3.15;0.90;;;10.70;49.40;;;;;;4986285;28;20014;-73
2021/04/17 08:21:14;;;;;;;3.58;0.90;;;10.80;49.10;;;;;;5018768;28;20034;-73
2021/04/17 08:23:42;;;;;;;2.15;0.82;;;10.90;48.90;;;;;;4992830;28;20350;-73
2021/04/17 08:26:08;;;;;;;1.08;0.55;;;11.10;48.70;;;;;;5014773;28;20009;-73
2021/04/17 08:28:44;;;;;;;1.48;0.70;;;11.30;48.60;;;;;;5012792;28;20018;-73
2021/04/17 08:31:45;;;;;;;3.15;1.27;;;11.80;48.00;;;;;;5028466;28;20041;-74
2021/04/17 08:34:19;;;;;;;3.90;0.70;;;12.20;46.10;;;;;;4952802;29;20031;-74
2021/04/17 08:36:49;;;;;;;1.63;0.80;;;12.30;45.50;;;;;;4969327;28;20268;-74
2021/04/17 08:39:33;;;;;;;3.50;0.88;;;12.70;45.00;;;;;;4937033;29;20310;-74
2021/04/17 08:41:59;;;;;;;2.10;0.70;;;12.70;44.20;;;;;;4968720;29;20015;-74
2021/04/17 08:44:45;;;;;;;2.55;1.02;;;12.50;44.00;;;;;;4936908;29;20035;-73
2021/04/17 08:47:11;;;;;;;1.73;1.00;;;12.00;44.40;;;;;;4952829;29;20031;-74
2021/04/17 08:49:39;;;;;;;3.13;0.90;;;11.80;45.20;;;;;;4968973;28;20321;-73
2021/04/17 08:52:19;;;;;;;2.05;0.65;;;11.60;45.90;;;;;;4968605;28;20310;-74
2021/04/17 08:54:45;;;;;;;3.78;0.90;;;11.70;46.20;;;;;;4952890;29;20011;-73
2021/04/17 08:57:15;;;;;;;3.20;0.60;;;11.70;46.10;;;;;;4969038;29;20042;-73
2021/04/17 08:59:41;;;;;;;1.20;0.50;;;11.80;46.30;;;;;;4969007;29;20026;-74
2021/04/17 09:02:13;;;;;;;1.38;0.57;;;12.00;46.20;;;;;;4969270;29;20022;-73
2021/04/17 09:04:58;;;;;;;2.25;0.70;;;11.90;46.00;;;;;;4968716;28;20033;-73
2021/04/17 09:07:24;;;;;;;1.20;0.68;;;11.90;45.90;;;;;;4956610;29;20331;-73
2021/04/17 09:09:49;;;;;;;2.42;0.80;;;11.70;45.80;;;;;;4963719;28;20042;-73
2021/04/17 09:12:16;;;;;;;2.60;0.70;;;11.80;46.20;;;;;;4987219;28;20027;-73
2021/04/17 09:14:42;;;;;;;0.95;0.60;;;12.10;46.20;;;;;;5004440;28;20015;-73
2021/04/17 09:17:17;;;;;;;1.20;0.80;;;12.10;44.60;;;;;;4990002;28;20102;-74
2021/04/17 09:19:49;;;;;;;3.13;0.88;;;12.10;44.30;;;;;;4972614;28;20073;-73
2021/04/17 09:22:27;;;;;;;3.25;0.85;;;12.20;43.60;;;;;;4990175;28;20014;-73
2021/04/17 09:25:14;;;;;;;1.80;0.65;;;12.20;43.40;;;;;;4989900;28;20049;-74
2021/04/17 09:27:44;;;;;;;1.63;0.68;;;12.40;43.30;;;;;;4988876;28;20019;-73
2021/04/17 09:30:15;;;;;;;1.10;0.50;;;12.50;43.20;;;;;;5005831;28;20097;-73
2021/04/17 09:32:44;;;;;;;2.35;0.68;;;12.80;43.20;;;;;;4975293;28;20023;-73
2021/04/17 09:35:24;;;;;;;2.65;0.93;;;13.20;42.20;;;;;;4988786;28;20026;-74
2021/04/17 09:38:07;;;;;;;1.25;0.63;;;14.70;41.00;;;;;;4995327;28;20011;-74
2021/04/17 09:40:45;;;;;;;0.85;0.60;;;15.30;38.90;;;;;;4975002;28;20011;-73
2021/04/17 09:43:22;;;;;;;7.10;1.00;;;15.00;38.00;;;;;;5002326;28;20022;-73
2021/04/17 09:45:50;;;;;;;3.15;0.68;;;15.20;37.60;;;;;;4986145;28;20023;-73
2021/04/17 09:48:17;;;;;;;3.70;1.10;;;15.20;37.50;;;;;;4942906;29;20015;-74
2021/04/17 09:50:42;;;;;;;3.42;0.85;;;14.50;37.70;;;;;;4997544;28;20027;-72
2021/04/17 09:53:18;;;;;;;1.80;0.88;;;14.10;38.80;;;;;;5001831;28;20087;-74
2021/04/17 09:55:51;;;;;;;5.32;0.95;;;13.90;39.30;;;;;;4985900;28;20033;-72
2021/04/17 09:58:21;;;;;;;2.47;0.80;;;13.80;40.00;;;;;;4987862;28;20042;-73
2021/04/17 10:00:47;;;;;;;1.83;0.88;;;14.00;39.90;;;;;;5004979;28;20085;-73
2021/04/17 10:03:13;;;;;;;3.53;0.95;;;14.10;39.70;;;;;;4988408;28;20064;-73
2021/04/17 10:05:39;;;;;;;1.75;0.90;;;13.90;40.40;;;;;;5005132;28;20022;-73
2021/04/17 10:08:05;;;;;;;3.50;0.90;;;14.30;39.90;;;;;;5004630;28;20014;-73
2021/04/17 10:10:37;;;;;;;1.88;1.02;;;14.50;39.70;;;;;;4988529;28;20033;-73
2021/04/17 10:13:03;;;;;;;1.67;0.77;;;14.20;39.80;;;;;;5005063;28;20034;-73
2021/04/17 10:15:34;;;;;;;2.42;1.17;;;14.70;40.00;;;;;;4983559;28;20010;-73
2021/04/17 10:18:00;;;;;;;1.52;0.80;;;15.40;38.60;;;;;;5040983;28;20069;-73
2021/04/17 10:20:26;;;;;;;3.83;0.88;;;14.90;38.60;;;;;;5008077;28;20022;-73
2021/04/17 10:22:59;;;;;;;2.72;1.00;;;15.00;39.10;;;;;;5004521;28;20028;-73
2021/04/17 10:25:52;;;;;;;1.65;0.90;;;14.90;39.30;;;;;;5004956;28;20030;-73
2021/04/17 10:28:22;;;;;;;2.13;0.90;;;15.50;38.40;;;;;;5002016;28;20339;-73
2021/04/17 10:30:53;;;;;;;1.88;0.98;;;15.90;38.10;;;;;;4988559;28;20054;-73
2021/04/17 10:33:25;;;;;;;1.92;0.90;;;16.50;37.20;;;;;;4988871;28;20014;-73
2021/04/17 10:35:52;;;;;;;2.92;1.20;;;16.20;37.20;;;;;;4969694;28;20018;-73
2021/04/17 10:38:27;;;;;;;2.35;1.00;;;16.10;37.30;;;;;;5004389;28;20010;-74
2021/04/17 10:40:54;;;;;;;1.40;0.90;;;16.10;37.50;;;;;;4989301;28;20018;-73
2021/04/17 10:43:20;;;;;;;4.63;1.10;;;16.90;37.20;;;;;;5004118;28;20018;-73
2021/04/17 10:45:46;;;;;;;5.07;1.45;;;16.90;35.90;;;;;;4982811;28;20061;-72
2021/04/17 10:48:18;;;;;;;3.90;1.20;;;16.60;36.70;;;;;;4992989;28;20021;-72
2021/04/17 10:50:54;;;;;;;2.72;1.05;;;16.40;36.80;;;;;;4972345;28;20026;-73
2021/04/17 10:53:26;;;;;;;4.43;1.00;;;16.20;37.40;;;;;;5003884;28;20013;-73
2021/04/17 10:55:53;;;;;;;1.88;1.10;;;16.70;37.50;;;;;;4988262;28;20017;-73
2021/04/17 10:58:23;;;;;;;3.17;1.10;;;17.30;36.60;;;;;;5003627;28;20035;-73
2021/04/17 11:00:57;;;;;;;2.72;0.98;;;16.80;36.70;;;;;;5003644;28;20087;-73
2021/04/17 11:03:28;;;;;;;3.92;1.05;;;16.80;37.20;;;;;;4965269;28;20050;-73
2021/04/17 11:05:55;;;;;;;3.17;1.20;;;16.60;37.50;;;;;;5003350;28;20268;-73
2021/04/17 11:08:31;;;;;;;4.53;1.13;;;16.30;37.90;;;;;;4987437;28;20026;-73
2021/04/17 11:10:56;;;;;;;4.95;1.23;;;16.20;38.10;;;;;;4988406;28;20110;-72
2021/04/17 11:13:37;;;;;;;2.60;1.02;;;16.10;38.30;;;;;;4968181;28;20014;-74
2021/04/17 11:16:03;;;;;;;2.45;1.17;;;16.10;38.80;;;;;;5000497;28;20031;-74
2021/04/17 11:18:33;;;;;;;1.83;0.95;;;16.30;38.60;;;;;;5003710;28;20073;-73
2021/04/17 11:21:01;;;;;;;1.83;0.90;;;16.40;38.20;;;;;;4981741;28;20053;-73
2021/04/17 11:23:52;;;;;;;2.80;0.90;;;16.30;38.40;;;;;;4988286;28;20015;-73
2021/04/17 11:26:26;;;;;;;1.67;0.82;;;16.60;38.40;;;;;;4988967;28;20061;-74
2021/04/17 11:28:52;;;;;;;1.50;1.10;;;16.70;38.50;;;;;;4989383;28;20018;-74
2021/04/17 11:31:38;;;;;;;2.47;1.10;;;16.50;38.30;;;;;;5004298;28;20122;-73
2021/04/17 11:34:04;;;;;;;3.78;1.10;;;16.40;38.90;;;;;;4969117;28;20025;-73
2021/04/17 11:36:31;;;;;;;1.73;0.95;;;16.50;38.70;;;;;;4988320;28;20023;-73
2021/04/17 11:38:57;;;;;;;4.30;0.98;;;16.40;39.10;;;;;;4987752;28;20044;-73
2021/04/17 11:41:22;;;;;;;2.08;0.90;;;16.50;40.80;;;;;;4988202;28;20018;-73
2021/04/17 11:43:48;;;;;;;1.60;1.00;;;16.20;43.10;;;;;;4987659;28;20022;-73
2021/04/17 11:46:14;;;;;;;2.00;0.90;;;16.10;43.10;;;;;;4987914;28;20044;-73
2021/04/17 11:48:41;;;;;;;2.08;0.90;;;15.90;43.00;;;;;;4988079;28;20042;-72
2021/04/17 11:51:07;;;;;;;3.33;1.23;;;15.50;44.50;;;;;;5003858;28;20030;-73
2021/04/17 11:53:32;;;;;;;1.45;0.70;;;15.20;45.80;;;;;;4970481;28;20090;-73
2021/04/17 11:55:58;;;;;;;1.60;0.80;;;15.30;45.70;;;;;;5004795;28;20033;-72
2021/04/17 11:58:24;;;;;;;2.22;0.95;;;15.40;45.80;;;;;;4986822;28;20038;-73
2021/04/17 12:00:50;;;;;;;4.25;1.10;;;15.30;47.70;;;;;;5004980;28;20060;-73
2021/04/17 12:03:21;;;;;;;1.48;0.80;;;15.30;48.20;;;;;;5008122;28;20025;-73
2021/04/17 12:05:55;;;;;;;2.60;1.10;;;15.30;47.80;;;;;;4990217;28;20041;-73
2021/04/17 12:08:21;;;;;;;1.13;0.60;;;15.20;47.70;;;;;;4986731;28;20018;-73
2021/04/17 12:10:47;;;;;;;4.22;0.85;;;15.30;47.30;;;;;;4970612;28;20021;-73
2021/04/17 12:13:12;;;;;;;1.80;0.82;;;15.30;48.10;;;;;;4986986;28;20014;-73
2021/04/17 12:15:38;;;;;;;2.92;0.73;;;15.10;47.70;;;;;;4986630;28;20328;-73
2021/04/17 12:18:04;;;;;;;2.13;0.65;;;15.30;47.70;;;;;;5003169;28;20312;-73
2021/04/17 12:20:30;;;;;;;1.67;0.70;;;15.30;47.10;;;;;;4986221;28;20022;-72
2021/04/17 12:22:56;;;;;;;1.75;0.70;;;15.50;46.70;;;;;;4986615;28;20010;-72
2021/04/17 12:25:22;;;;;;;2.35;1.00;;;15.40;47.00;;;;;;4986490;28;20011;-72
2021/04/17 12:27:48;;;;;;;1.65;0.90;;;15.20;47.00;;;;;;4966967;28;20057;-73
2021/04/17 12:30:14;;;;;;;2.58;1.00;;;15.20;47.90;;;;;;4999234;28;20014;-73
2021/04/17 12:32:39;;;;;;;2.05;0.80;;;15.00;48.30;;;;;;5001570;28;20021;-73
2021/04/17 12:35:06;;;;;;;0.85;0.60;;;15.40;46.50;;;;;;4967230;28;20376;-74
2021/04/17 12:37:33;;;;;;;3.42;1.13;;;15.50;46.20;;;;;;5002578;28;20018;-73
2021/04/17 12:39:58;;;;;;;1.98;0.80;;;15.60;45.80;;;;;;4987071;28;20102;-73
2021/04/17 12:42:24;;;;;;;1.90;1.10;;;15.60;45.90;;;;;;5004190;28;20342;-73
2021/04/17 12:44:49;;;;;;;2.40;1.00;;;15.40;45.70;;;;;;4987591;28;20294;-75
2021/04/17 12:47:15;;;;;;;2.35;0.60;;;15.50;45.60;;;;;;4987789;28;20010;-73
2021/04/17 12:49:41;;;;;;;3.42;1.08;;;15.60;45.90;;;;;;4986926;28;20022;-73
2021/04/17 12:52:06;;;;;;;2.25;1.10;;;15.40;46.30;;;;;;5002751;28;20049;-73
2021/04/17 12:54:32;;;;;;;1.45;0.80;;;15.30;46.80;;;;;;4968137;28;20308;-74
2021/04/17 12:56:58;;;;;;;1.88;0.90;;;15.30;47.10;;;;;;4999132;28;20416;-73